sensor_id;sensor_type;location;lat;lon;timestamp;pressure;altitude;pressure_sealevel;temperature;humidity
14232;BME280;7200;52.194;9.900;2023-03-21T00:00:22;100587.97;;;10.10;100.00
14232;BME280;7200;52.194;9.900;2023-03-21T00:02:48;100616.25;;;10.33;100.00
14232;BME280;7200;52.194;9.900;2023-03-21T00:05:13;100569.78;;;10.01;100.00
14232;BME280;7200;52.194;9.900;2023-03-21T00:07:38;100570.72;;;10.00;100.00
14232;BME280;7200;52.194;9.900;2023-03-21T00:10:04;100604.00;;;10.32;100.00
14232;BME280;7200;52.194;9.900;2023-03-21T00:12:30;100584.81;;;10.26;100.00
14232;BME280;7200;52.194;9.900;2023-03-21T00:14:57;100580.84;;;10.12;100.00
14232;BME280;7200;52.194;9.900;2023-03-21T00:17:28;100588.38;;;10.25;100.00
14232;BME280;7200;52.194;9.900;2023-03-21T00:19:57;100584.31;;;10.14;100.00
14232;BME280;7200;52.194;9.900;2023-03-21T00:22:23;100583.38;;;10.17;100.00
14232;BME280;7200;52.194;9.900;2023-03-21T00:24:49;100607.22;;;10.41;100.00
14232;BME280;7200;52.194;9.900;2023-03-21T00:27:16;100559.13;;;10.06;100.00
14232;BME280;7200;52.194;9.900;2023-03-21T00:29:41;100565.19;;;10.08;100.00
14232;BME280;7200;52.194;9.900;2023-03-21T00:32:06;100569.34;;;10.15;100.00
14232;BME280;7200;52.194;9.900;2023-03-21T00:34:32;100572.50;;;10.26;100.00
14232;BME280;7200;52.194;9.900;2023-03-21T00:37:02;100576.94;;;10.52;100.00
14232;BME280;7200;52.194;9.900;2023-03-21T00:39:27;100569.13;;;10.49;100.00
14232;BME280;7200;52.194;9.900;2023-03-21T00:41:53;100552.94;;;10.33;100.00
14232;BME280;7200;52.194;9.900;2023-03-21T00:44:18;100542.16;;;10.13;100.00
14232;BME280;7200;52.194;9.900;2023-03-21T00:46:43;100543.84;;;10.16;100.00
14232;BME280;7200;52.194;9.900;2023-03-21T00:49:08;100540.16;;;10.21;100.00
14232;BME280;7200;52.194;9.900;2023-03-21T00:51:34;100560.19;;;10.27;100.00
14232;BME280;7200;52.194;9.900;2023-03-21T00:53:59;100548.72;;;10.28;100.00
14232;BME280;7200;52.194;9.900;2023-03-21T00:56:25;100563.19;;;10.43;100.00
14232;BME280;7200;52.194;9.900;2023-03-21T00:58:50;100528.47;;;10.02;100.00
14232;BME280;7200;52.194;9.900;2023-03-21T01:01:16;100544.31;;;10.28;100.00
14232;BME280;7200;52.194;9.900;2023-03-21T01:03:41;100565.13;;;10.64;100.00
14232;BME280;7200;52.194;9.900;2023-03-21T01:06:12;100535.88;;;10.70;100.00
14232;BME280;7200;52.194;9.900;2023-03-21T01:08:40;100532.34;;;10.45;100.00
14232;BME280;7200;52.194;9.900;2023-03-21T01:11:09;100522.22;;;10.32;100.00
14232;BME280;7200;52.194;9.900;2023-03-21T01:13:34;100511.91;;;10.51;100.00
14232;BME280;7200;52.194;9.900;2023-03-21T01:16:00;100531.50;;;10.69;100.00
14232;BME280;7200;52.194;9.900;2023-03-21T01:18:28;100534.31;;;10.65;100.00
14232;BME280;7200;52.194;9.900;2023-03-21T01:20:56;100524.66;;;10.39;100.00
14232;BME280;7200;52.194;9.900;2023-03-21T01:23:22;100532.63;;;10.62;100.00
14232;BME280;7200;52.194;9.900;2023-03-21T01:25:49;100536.50;;;10.52;100.00
14232;BME280;7200;52.194;9.900;2023-03-21T01:28:15;100504.41;;;10.39;100.00
14232;BME280;7200;52.194;9.900;2023-03-21T01:30:47;100516.84;;;10.36;100.00
14232;BME280;7200;52.194;9.900;2023-03-21T01:33:13;100535.25;;;10.37;100.00
14232;BME280;7200;52.194;9.900;2023-03-21T01:35:39;100547.63;;;10.60;100.00
14232;BME280;7200;52.194;9.900;2023-03-21T01:38:05;100504.44;;;10.38;100.00
14232;BME280;7200;52.194;9.900;2023-03-21T01:40:30;100501.25;;;10.28;100.00
14232;BME280;7200;52.194;9.900;2023-03-21T01:42:56;100518.53;;;10.38;100.00
14232;BME280;7200;52.194;9.900;2023-03-21T01:48:25;100505.03;;;10.47;100.00
14232;BME280;7200;52.194;9.900;2023-03-21T01:50:51;100512.00;;;10.74;100.00
14232;BME280;7200;52.194;9.900;2023-03-21T01:53:19;100532.59;;;11.13;100.00
14232;BME280;7200;52.194;9.900;2023-03-21T01:55:46;100468.22;;;10.18;100.00
14232;BME280;7200;52.194;9.900;2023-03-21T01:58:14;100458.94;;;10.06;100.00
14232;BME280;7200;52.194;9.900;2023-03-21T02:00:45;100483.63;;;10.03;100.00
14232;BME280;7200;52.194;9.900;2023-03-21T02:03:12;100531.03;;;10.31;100.00
14232;BME280;7200;52.194;9.900;2023-03-21T02:05:51;100515.94;;;10.37;100.00
14232;BME280;7200;52.194;9.900;2023-03-21T02:08:19;100493.06;;;10.37;100.00
14232;BME280;7200;52.194;9.900;2023-03-21T02:10:47;100509.28;;;10.25;100.00
14232;BME280;7200;52.194;9.900;2023-03-21T02:13:14;100519.47;;;10.36;100.00
14232;BME280;7200;52.194;9.900;2023-03-21T02:15:42;100509.28;;;10.25;100.00
14232;BME280;7200;52.194;9.900;2023-03-21T02:18:40;100511.56;;;10.09;100.00
14232;BME280;7200;52.194;9.900;2023-03-21T02:21:30;100511.09;;;10.23;100.00
14232;BME280;7200;52.194;9.900;2023-03-21T02:26:53;100519.03;;;10.49;100.00
14232;BME280;7200;52.194;9.900;2023-03-21T02:29:30;100506.09;;;10.42;100.00
14232;BME280;7200;52.194;9.900;2023-03-21T02:34:50;100519.38;;;10.64;100.00
14232;BME280;7200;52.194;9.900;2023-03-21T02:37:41;100489.59;;;10.60;100.00
14232;BME280;7200;52.194;9.900;2023-03-21T02:45:28;100485.03;;;10.65;100.00
14232;BME280;7200;52.194;9.900;2023-03-21T02:48:01;100446.66;;;10.31;100.00
14232;BME280;7200;52.194;9.900;2023-03-21T02:50:47;100465.84;;;10.60;100.00
14232;BME280;7200;52.194;9.900;2023-03-21T02:53:15;100487.63;;;10.90;100.00
14232;BME280;7200;52.194;9.900;2023-03-21T02:55:42;100442.84;;;10.40;100.00
14232;BME280;7200;52.194;9.900;2023-03-21T02:58:11;100455.19;;;10.63;100.00
14232;BME280;7200;52.194;9.900;2023-03-21T03:00:38;100464.94;;;10.61;100.00
14232;BME280;7200;52.194;9.900;2023-03-21T03:03:04;100450.75;;;10.40;100.00
14232;BME280;7200;52.194;9.900;2023-03-21T03:05:33;100454.53;;;10.57;100.00
14232;BME280;7200;52.194;9.900;2023-03-21T03:16:45;100463.13;;;10.63;100.00
14232;BME280;7200;52.194;9.900;2023-03-21T03:19:27;100480.16;;;10.78;100.00
14232;BME280;7200;52.194;9.900;2023-03-21T03:24:25;100448.50;;;10.78;100.00
14232;BME280;7200;52.194;9.900;2023-03-21T03:27:00;100444.31;;;10.96;100.00
14232;BME280;7200;52.194;9.900;2023-03-21T03:29:29;100424.81;;;11.00;100.00
14232;BME280;7200;52.194;9.900;2023-03-21T03:32:00;100435.41;;;10.99;100.00
14232;BME280;7200;52.194;9.900;2023-03-21T03:34:32;100408.97;;;10.77;100.00
14232;BME280;7200;52.194;9.900;2023-03-21T03:37:04;100415.69;;;10.85;100.00
14232;BME280;7200;52.194;9.900;2023-03-21T03:39:38;100434.78;;;10.68;100.00
14232;BME280;7200;52.194;9.900;2023-03-21T03:42:08;100450.97;;;10.83;100.00
14232;BME280;7200;52.194;9.900;2023-03-21T03:44:38;100453.25;;;10.92;100.00
14232;BME280;7200;52.194;9.900;2023-03-21T03:47:30;100449.88;;;10.88;100.00
14232;BME280;7200;52.194;9.900;2023-03-21T03:52:37;100475.03;;;10.99;100.00
14232;BME280;7200;52.194;9.900;2023-03-21T03:55:05;100468.34;;;10.88;100.00
14232;BME280;7200;52.194;9.900;2023-03-21T03:57:31;100463.88;;;10.67;100.00
14232;BME280;7200;52.194;9.900;2023-03-21T03:59:57;100460.03;;;10.76;100.00
14232;BME280;7200;52.194;9.900;2023-03-21T04:02:22;100454.41;;;10.61;100.00
14232;BME280;7200;52.194;9.900;2023-03-21T04:04:47;100461.47;;;10.61;100.00
14232;BME280;7200;52.194;9.900;2023-03-21T04:07:18;100452.28;;;10.47;100.00
14232;BME280;7200;52.194;9.900;2023-03-21T04:09:43;100463.16;;;10.38;100.00
14232;BME280;7200;52.194;9.900;2023-03-21T04:12:09;100490.59;;;10.58;100.00
14232;BME280;7200;52.194;9.900;2023-03-21T04:14:35;100475.88;;;10.50;100.00
14232;BME280;7200;52.194;9.900;2023-03-21T04:17:00;100503.69;;;10.84;100.00
14232;BME280;7200;52.194;9.900;2023-03-21T04:19:25;100470.69;;;10.73;100.00
14232;BME280;7200;52.194;9.900;2023-03-21T04:21:51;100443.22;;;10.28;100.00
14232;BME280;7200;52.194;9.900;2023-03-21T04:24:17;100468.28;;;10.41;100.00
14232;BME280;7200;52.194;9.900;2023-03-21T04:26:42;100465.56;;;10.44;100.00
14232;BME280;7200;52.194;9.900;2023-03-21T04:29:08;100460.66;;;10.59;100.00
14232;BME280;7200;52.194;9.900;2023-03-21T04:31:33;100468.59;;;10.82;100.00
14232;BME280;7200;52.194;9.900;2023-03-21T04:34:01;100455.25;;;10.62;100.00
14232;BME280;7200;52.194;9.900;2023-03-21T04:36:29;100444.13;;;10.54;100.00
14232;BME280;7200;52.194;9.900;2023-03-21T04:39:06;100441.06;;;10.41;100.00
14232;BME280;7200;52.194;9.900;2023-03-21T04:41:40;100457.81;;;10.40;100.00
14232;BME280;7200;52.194;9.900;2023-03-21T04:44:06;100447.63;;;10.54;100.00
14232;BME280;7200;52.194;9.900;2023-03-21T04:46:32;100465.94;;;10.82;100.00
14232;BME280;7200;52.194;9.900;2023-03-21T04:48:58;100447.66;;;10.52;100.00
14232;BME280;7200;52.194;9.900;2023-03-21T04:51:23;100454.25;;;10.41;100.00
14232;BME280;7200;52.194;9.900;2023-03-21T04:53:48;100467.59;;;10.61;100.00
14232;BME280;7200;52.194;9.900;2023-03-21T04:56:17;100504.34;;;11.15;100.00
14232;BME280;7200;52.194;9.900;2023-03-21T04:58:43;100439.66;;;10.56;100.00
14232;BME280;7200;52.194;9.900;2023-03-21T05:01:08;100440.03;;;10.70;100.00
14232;BME280;7200;52.194;9.900;2023-03-21T05:03:33;100438.19;;;10.47;100.00
14232;BME280;7200;52.194;9.900;2023-03-21T05:06:06;100434.94;;;10.40;100.00
14232;BME280;7200;52.194;9.900;2023-03-21T05:08:33;100446.09;;;10.47;100.00
14232;BME280;7200;52.194;9.900;2023-03-21T05:10:58;100434.59;;;10.49;100.00
14232;BME280;7200;52.194;9.900;2023-03-21T05:13:24;100466.47;;;10.68;100.00
14232;BME280;7200;52.194;9.900;2023-03-21T05:15:49;100435.19;;;10.58;100.00
14232;BME280;7200;52.194;9.900;2023-03-21T05:18:15;100407.16;;;10.55;100.00
14232;BME280;7200;52.194;9.900;2023-03-21T05:20:49;100447.69;;;11.00;100.00
14232;BME280;7200;52.194;9.900;2023-03-21T05:23:18;100439.00;;;11.20;100.00
14232;BME280;7200;52.194;9.900;2023-03-21T05:25:43;100438.75;;;11.26;100.00
14232;BME280;7200;52.194;9.900;2023-03-21T05:28:09;100412.16;;;11.08;100.00
14232;BME280;7200;52.194;9.900;2023-03-21T05:30:34;100456.72;;;11.62;100.00
14232;BME280;7200;52.194;9.900;2023-03-21T05:32:59;100424.88;;;11.65;100.00
14232;BME280;7200;52.194;9.900;2023-03-21T05:35:25;100423.16;;;11.64;100.00
14232;BME280;7200;52.194;9.900;2023-03-21T05:37:51;100379.88;;;11.24;100.00
14232;BME280;7200;52.194;9.900;2023-03-21T05:40:17;100388.91;;;11.18;100.00
14232;BME280;7200;52.194;9.900;2023-03-21T05:42:43;100388.94;;;11.17;100.00
14232;BME280;7200;52.194;9.900;2023-03-21T05:45:09;100415.75;;;11.29;100.00
14232;BME280;7200;52.194;9.900;2023-03-21T05:47:35;100399.78;;;11.33;100.00
14232;BME280;7200;52.194;9.900;2023-03-21T05:50:00;100433.13;;;11.79;100.00
14232;BME280;7200;52.194;9.900;2023-03-21T05:52:25;100418.38;;;11.74;100.00
14232;BME280;7200;52.194;9.900;2023-03-21T05:54:52;100373.91;;;11.41;100.00
14232;BME280;7200;52.194;9.900;2023-03-21T05:57:17;100406.88;;;11.53;100.00
14232;BME280;7200;52.194;9.900;2023-03-21T05:59:43;100407.13;;;11.68;100.00
14232;BME280;7200;52.194;9.900;2023-03-21T06:02:08;100433.09;;;12.01;100.00
14232;BME280;7200;52.194;9.900;2023-03-21T06:04:34;100398.75;;;11.79;100.00
14232;BME280;7200;52.194;9.900;2023-03-21T06:06:59;100435.28;;;12.33;100.00
14232;BME280;7200;52.194;9.900;2023-03-21T06:09:24;100380.09;;;11.82;100.00
14232;BME280;7200;52.194;9.900;2023-03-21T06:11:52;100384.75;;;11.77;100.00
14232;BME280;7200;52.194;9.900;2023-03-21T06:14:19;100386.72;;;11.72;100.00
14232;BME280;7200;52.194;9.900;2023-03-21T06:16:44;100361.00;;;11.33;100.00
14232;BME280;7200;52.194;9.900;2023-03-21T06:19:10;100366.56;;;11.27;100.00
14232;BME280;7200;52.194;9.900;2023-03-21T06:21:35;100394.88;;;11.45;100.00
14232;BME280;7200;52.194;9.900;2023-03-21T06:24:01;100406.44;;;11.63;100.00
14232;BME280;7200;52.194;9.900;2023-03-21T06:26:26;100378.38;;;11.39;100.00
14232;BME280;7200;52.194;9.900;2023-03-21T06:28:52;100392.69;;;11.55;100.00
14232;BME280;7200;52.194;9.900;2023-03-21T06:31:18;100385.09;;;11.47;100.00
14232;BME280;7200;52.194;9.900;2023-03-21T06:33:46;100354.41;;;11.23;100.00
14232;BME280;7200;52.194;9.900;2023-03-21T06:36:12;100384.63;;;11.38;100.00
14232;BME280;7200;52.194;9.900;2023-03-21T06:38:37;100407.72;;;11.75;100.00
14232;BME280;7200;52.194;9.900;2023-03-21T06:41:03;100412.44;;;11.89;100.00
14232;BME280;7200;52.194;9.900;2023-03-21T06:43:29;100387.44;;;11.76;100.00
14232;BME280;7200;52.194;9.900;2023-03-21T06:45:56;100391.16;;;11.92;100.00
14232;BME280;7200;52.194;9.900;2023-03-21T06:48:21;100404.41;;;12.13;100.00
14232;BME280;7200;52.194;9.900;2023-03-21T06:50:48;100407.09;;;12.32;100.00
14232;BME280;7200;52.194;9.900;2023-03-21T06:53:14;100368.72;;;12.02;100.00
14232;BME280;7200;52.194;9.900;2023-03-21T06:55:40;100356.50;;;12.00;100.00
14232;BME280;7200;52.194;9.900;2023-03-21T06:58:05;100333.00;;;11.72;100.00
14232;BME280;7200;52.194;9.900;2023-03-21T07:00:31;100380.03;;;12.06;100.00
14232;BME280;7200;52.194;9.900;2023-03-21T07:02:56;100365.75;;;11.90;100.00
14232;BME280;7200;52.194;9.900;2023-03-21T07:05:23;100346.13;;;11.73;100.00
14232;BME280;7200;52.194;9.900;2023-03-21T07:07:48;100373.41;;;11.96;100.00
14232;BME280;7200;52.194;9.900;2023-03-21T07:10:14;100354.56;;;11.83;100.00
14232;BME280;7200;52.194;9.900;2023-03-21T07:12:39;100388.16;;;12.41;100.00
14232;BME280;7200;52.194;9.900;2023-03-21T07:15:06;100391.94;;;12.35;100.00
14232;BME280;7200;52.194;9.900;2023-03-21T07:17:32;100319.97;;;11.67;100.00
14232;BME280;7200;52.194;9.900;2023-03-21T07:19:58;100352.59;;;11.86;100.00
14232;BME280;7200;52.194;9.900;2023-03-21T07:22:23;100356.19;;;11.85;100.00
14232;BME280;7200;52.194;9.900;2023-03-21T07:24:49;100385.38;;;12.25;100.00
14232;BME280;7200;52.194;9.900;2023-03-21T07:27:15;100401.34;;;12.42;100.00
14232;BME280;7200;52.194;9.900;2023-03-21T07:29:41;100387.31;;;12.40;100.00
14232;BME280;7200;52.194;9.900;2023-03-21T07:32:08;100358.34;;;12.37;100.00
14232;BME280;7200;52.194;9.900;2023-03-21T07:34:33;100360.94;;;12.39;100.00
14232;BME280;7200;52.194;9.900;2023-03-21T07:36:59;100388.31;;;12.77;100.00
14232;BME280;7200;52.194;9.900;2023-03-21T07:39:25;100333.56;;;12.40;100.00
14232;BME280;7200;52.194;9.900;2023-03-21T07:41:51;100349.44;;;12.59;100.00
14232;BME280;7200;52.194;9.900;2023-03-21T07:44:17;100340.44;;;12.63;100.00
14232;BME280;7200;52.194;9.900;2023-03-21T07:46:42;100370.13;;;12.89;100.00
14232;BME280;7200;52.194;9.900;2023-03-21T07:49:07;100308.72;;;12.61;100.00
14232;BME280;7200;52.194;9.900;2023-03-21T07:51:34;100310.31;;;12.46;100.00
14232;BME280;7200;52.194;9.900;2023-03-21T07:54:00;100321.91;;;12.63;100.00
14232;BME280;7200;52.194;9.900;2023-03-21T07:56:26;100344.69;;;12.84;100.00
14232;BME280;7200;52.194;9.900;2023-03-21T07:58:52;100330.25;;;12.73;100.00
14232;BME280;7200;52.194;9.900;2023-03-21T08:01:17;100315.97;;;12.58;100.00
14232;BME280;7200;52.194;9.900;2023-03-21T08:03:42;100296.88;;;12.32;100.00
14232;BME280;7200;52.194;9.900;2023-03-21T08:06:08;100305.59;;;12.34;100.00
14232;BME280;7200;52.194;9.900;2023-03-21T08:08:34;100341.22;;;12.65;100.00
14232;BME280;7200;52.194;9.900;2023-03-21T08:10:59;100305.19;;;12.43;100.00
14232;BME280;7200;52.194;9.900;2023-03-21T08:13:25;100326.06;;;12.50;100.00
14232;BME280;7200;52.194;9.900;2023-03-21T08:15:50;100373.84;;;13.03;100.00
14232;BME280;7200;52.194;9.900;2023-03-21T08:18:16;100357.59;;;12.92;100.00
14232;BME280;7200;52.194;9.900;2023-03-21T08:20:41;100308.81;;;12.41;100.00
14232;BME280;7200;52.194;9.900;2023-03-21T08:23:06;100341.16;;;12.66;100.00
14232;BME280;7200;52.194;9.900;2023-03-21T08:25:32;100331.84;;;12.58;100.00
14232;BME280;7200;52.194;9.900;2023-03-21T08:27:57;100386.72;;;13.30;100.00
14232;BME280;7200;52.194;9.900;2023-03-21T08:30:25;100343.75;;;13.04;100.00
14232;BME280;7200;52.194;9.900;2023-03-21T08:32:55;100389.09;;;13.54;100.00
14232;BME280;7200;52.194;9.900;2023-03-21T08:35:21;100352.75;;;13.56;100.00
14232;BME280;7200;52.194;9.900;2023-03-21T08:37:47;100319.88;;;13.23;100.00
14232;BME280;7200;52.194;9.900;2023-03-21T08:40:15;100359.78;;;13.57;100.00
14232;BME280;7200;52.194;9.900;2023-03-21T08:42:41;100291.75;;;13.03;100.00
14232;BME280;7200;52.194;9.900;2023-03-21T08:45:07;100356.69;;;13.49;100.00
14232;BME280;7200;52.194;9.900;2023-03-21T08:47:33;100297.88;;;12.87;100.00
14232;BME280;7200;52.194;9.900;2023-03-21T08:49:58;100360.69;;;13.38;100.00
14232;BME280;7200;52.194;9.900;2023-03-21T08:52:24;100292.72;;;13.01;100.00
14232;BME280;7200;52.194;9.900;2023-03-21T08:54:51;100288.75;;;12.73;100.00
14232;BME280;7200;52.194;9.900;2023-03-21T08:57:16;100334.72;;;13.09;100.00
14232;BME280;7200;52.194;9.900;2023-03-21T08:59:41;100352.47;;;13.25;100.00
14232;BME280;7200;52.194;9.900;2023-03-21T09:02:08;100379.63;;;13.85;100.00
14232;BME280;7200;52.194;9.900;2023-03-21T09:04:33;100300.06;;;13.50;100.00
14232;BME280;7200;52.194;9.900;2023-03-21T09:06:59;100291.50;;;13.08;100.00
14232;BME280;7200;52.194;9.900;2023-03-21T09:09:28;100352.84;;;13.89;100.00
14232;BME280;7200;52.194;9.900;2023-03-21T09:11:54;100305.28;;;13.51;100.00
14232;BME280;7200;52.194;9.900;2023-03-21T09:14:20;100358.47;;;14.00;100.00
14232;BME280;7200;52.194;9.900;2023-03-21T09:16:45;100302.16;;;13.78;100.00
14232;BME280;7200;52.194;9.900;2023-03-21T09:19:10;100320.41;;;14.01;100.00
14232;BME280;7200;52.194;9.900;2023-03-21T09:21:37;100318.59;;;14.02;100.00
14232;BME280;7200;52.194;9.900;2023-03-21T09:24:03;100320.91;;;14.08;100.00
14232;BME280;7200;52.194;9.900;2023-03-21T09:26:33;100323.19;;;13.98;100.00
14232;BME280;7200;52.194;9.900;2023-03-21T09:28:58;100325.94;;;14.30;100.00
14232;BME280;7200;52.194;9.900;2023-03-21T09:31:25;100336.50;;;14.48;100.00
14232;BME280;7200;52.194;9.900;2023-03-21T09:33:52;100300.69;;;14.39;100.00
14232;BME280;7200;52.194;9.900;2023-03-21T09:36:18;100308.50;;;14.42;100.00
14232;BME280;7200;52.194;9.900;2023-03-21T09:38:45;100250.81;;;13.96;100.00
14232;BME280;7200;52.194;9.900;2023-03-21T09:44:23;100324.97;;;14.15;100.00
14232;BME280;7200;52.194;9.900;2023-03-21T09:47:15;100285.63;;;13.90;100.00
14232;BME280;7200;52.194;9.900;2023-03-21T09:49:52;100326.47;;;14.37;100.00
14232;BME280;7200;52.194;9.900;2023-03-21T09:52:29;100357.47;;;14.86;100.00
14232;BME280;7200;52.194;9.900;2023-03-21T09:54:56;100280.75;;;14.32;100.00
14232;BME280;7200;52.194;9.900;2023-03-21T09:57:32;100337.41;;;14.80;100.00
14232;BME280;7200;52.194;9.900;2023-03-21T10:00:03;100331.94;;;15.15;100.00
14232;BME280;7200;52.194;9.900;2023-03-21T10:02:35;100327.81;;;15.55;100.00
14232;BME280;7200;52.194;9.900;2023-03-21T10:05:16;100260.97;;;15.01;100.00
14232;BME280;7200;52.194;9.900;2023-03-21T10:07:49;100261.41;;;14.93;100.00
14232;BME280;7200;52.194;9.900;2023-03-21T10:10:21;100243.09;;;14.73;100.00
14232;BME280;7200;52.194;9.900;2023-03-21T10:12:49;100239.84;;;14.36;100.00
14232;BME280;7200;52.194;9.900;2023-03-21T10:15:18;100291.44;;;14.64;100.00
14232;BME280;7200;52.194;9.900;2023-03-21T10:18:11;100275.66;;;14.76;100.00
14232;BME280;7200;52.194;9.900;2023-03-21T10:20:35;100256.44;;;14.39;100.00
14232;BME280;7200;52.194;9.900;2023-03-21T10:23:09;100239.84;;;14.36;100.00
14232;BME280;7200;52.194;9.900;2023-03-21T10:25:40;100237.34;;;14.17;100.00
14232;BME280;7200;52.194;9.900;2023-03-21T10:28:08;100276.53;;;14.28;100.00
14232;BME280;7200;52.194;9.900;2023-03-21T10:31:00;100259.41;;;14.17;100.00
14232;BME280;7200;52.194;9.900;2023-03-21T10:33:31;100252.66;;;14.28;100.00
14232;BME280;7200;52.194;9.900;2023-03-21T10:36:02;100264.28;;;14.09;100.00
14232;BME280;7200;52.194;9.900;2023-03-21T10:38:29;100253.31;;;13.82;100.00
14232;BME280;7200;52.194;9.900;2023-03-21T10:40:55;100276.19;;;13.85;100.00
14232;BME280;7200;52.194;9.900;2023-03-21T10:45:54;100334.22;;;13.91;100.00
14232;BME280;7200;52.194;9.900;2023-03-21T10:48:23;100355.72;;;14.02;100.00
14232;BME280;7200;52.194;9.900;2023-03-21T10:50:51;100340.63;;;13.87;100.00
14232;BME280;7200;52.194;9.900;2023-03-21T10:53:27;100366.75;;;14.45;100.00
14232;BME280;7200;52.194;9.900;2023-03-21T10:55:56;100314.09;;;14.20;100.00
14232;BME280;7200;52.194;9.900;2023-03-21T10:58:26;100337.47;;;14.13;100.00
14232;BME280;7200;52.194;9.900;2023-03-21T11:00:57;100332.97;;;13.98;100.00
14232;BME280;7200;52.194;9.900;2023-03-21T11:03:54;100302.50;;;13.72;100.00
14232;BME280;7200;52.194;9.900;2023-03-21T11:08:53;100335.47;;;13.83;100.00
14232;BME280;7200;52.194;9.900;2023-03-21T11:11:24;100336.63;;;13.78;100.00
14232;BME280;7200;52.194;9.900;2023-03-21T11:14:00;100339.38;;;13.94;100.00
14232;BME280;7200;52.194;9.900;2023-03-21T11:19:02;100350.03;;;13.75;100.00
14232;BME280;7200;52.194;9.900;2023-03-21T11:21:34;100325.09;;;13.61;100.00
14232;BME280;7200;52.194;9.900;2023-03-21T11:24:01;100345.50;;;13.59;100.00
14232;BME280;7200;52.194;9.900;2023-03-21T11:26:34;100375.94;;;13.87;100.00
14232;BME280;7200;52.194;9.900;2023-03-21T11:29:16;100371.47;;;14.05;100.00
14232;BME280;7200;52.194;9.900;2023-03-21T11:31:44;100341.47;;;13.70;100.00
14232;BME280;7200;52.194;9.900;2023-03-21T11:34:23;100395.94;;;14.45;100.00
14232;BME280;7200;52.194;9.900;2023-03-21T11:36:51;100325.59;;;14.03;100.00
14232;BME280;7200;52.194;9.900;2023-03-21T11:39:32;100384.81;;;14.88;100.00
14232;BME280;7200;52.194;9.900;2023-03-21T11:41:57;100322.75;;;14.57;100.00
14232;BME280;7200;52.194;9.900;2023-03-21T11:44:32;100322.75;;;14.57;100.00
14232;BME280;7200;52.194;9.900;2023-03-21T11:46:58;100279.38;;;14.25;100.00
14232;BME280;7200;52.194;9.900;2023-03-21T11:49:27;100286.06;;;13.98;100.00
14232;BME280;7200;52.194;9.900;2023-03-21T11:55:08;100332.72;;;14.02;100.00
14232;BME280;7200;52.194;9.900;2023-03-21T11:57:42;100313.28;;;14.02;100.00
14232;BME280;7200;52.194;9.900;2023-03-21T12:00:16;100319.91;;;13.93;100.00
14232;BME280;7200;52.194;9.900;2023-03-21T12:05:52;100333.50;;;13.87;100.00
14232;BME280;7200;52.194;9.900;2023-03-21T12:11:14;100324.16;;;13.80;100.00
14232;BME280;7200;52.194;9.900;2023-03-21T12:19:04;100304.38;;;14.03;100.00
14232;BME280;7200;52.194;9.900;2023-03-21T12:21:51;100291.78;;;13.91;100.00
14232;BME280;7200;52.194;9.900;2023-03-21T12:24:50;100290.41;;;13.49;100.00
14232;BME280;7200;52.194;9.900;2023-03-21T12:27:28;100294.28;;;13.76;100.00
14232;BME280;7200;52.194;9.900;2023-03-21T12:35:48;100266.16;;;13.56;100.00
14232;BME280;7200;52.194;9.900;2023-03-21T12:38:15;100284.06;;;13.69;100.00
14232;BME280;7200;52.194;9.900;2023-03-21T12:46:19;100306.44;;;13.80;100.00
14232;BME280;7200;52.194;9.900;2023-03-21T12:48:57;100326.31;;;13.89;100.00
14232;BME280;7200;52.194;9.900;2023-03-21T12:51:35;100332.72;;;14.02;100.00
14232;BME280;7200;52.194;9.900;2023-03-21T12:56:53;100302.09;;;13.79;100.00
14232;BME280;7200;52.194;9.900;2023-03-21T12:59:47;100333.88;;;13.97;100.00
14232;BME280;7200;52.194;9.900;2023-03-21T13:02:21;100343.84;;;14.43;100.00
14232;BME280;7200;52.194;9.900;2023-03-21T13:04:55;100314.44;;;14.14;100.00
14232;BME280;7200;52.194;9.900;2023-03-21T13:07:22;100300.75;;;14.21;100.00
14232;BME280;7200;52.194;9.900;2023-03-21T13:09:49;100324.50;;;14.40;100.00
14232;BME280;7200;52.194;9.900;2023-03-21T13:12:39;100305.06;;;14.24;100.00
14232;BME280;7200;52.194;9.900;2023-03-21T13:17:44;100250.16;;;13.75;100.00
14232;BME280;7200;52.194;9.900;2023-03-21T13:20:17;100295.56;;;14.02;100.00
14232;BME280;7200;52.194;9.900;2023-03-21T13:22:46;100271.28;;;13.77;100.00
14232;BME280;7200;52.194;9.900;2023-03-21T13:25:22;100287.63;;;14.02;100.00
14232;BME280;7200;52.194;9.900;2023-03-21T13:27:54;100284.13;;;14.18;100.00
14232;BME280;7200;52.194;9.900;2023-03-21T13:30:27;100270.75;;;13.70;100.00
14232;BME280;7200;52.194;9.900;2023-03-21T13:33:10;100280.31;;;13.90;100.00
14232;BME280;7200;52.194;9.900;2023-03-21T13:35:39;100288.94;;;14.11;100.00
14232;BME280;7200;52.194;9.900;2023-03-21T13:38:21;100317.50;;;14.39;100.00
14232;BME280;7200;52.194;9.900;2023-03-21T13:41:02;100278.81;;;14.18;100.00
14232;BME280;7200;52.194;9.900;2023-03-21T13:43:34;100263.38;;;13.93;100.00
14232;BME280;7200;52.194;9.900;2023-03-21T13:59:10;100262.19;;;13.30;100.00
14232;BME280;7200;52.194;9.900;2023-03-21T14:01:40;100269.41;;;13.27;100.00
14232;BME280;7200;52.194;9.900;2023-03-21T14:07:20;100279.41;;;13.39;100.00
14232;BME280;7200;52.194;9.900;2023-03-21T14:09:55;100300.06;;;13.67;100.00
14232;BME280;7200;52.194;9.900;2023-03-21T14:12:24;100252.44;;;13.31;100.00
14232;BME280;7200;52.194;9.900;2023-03-21T14:14:58;100307.31;;;13.46;100.00
14232;BME280;7200;52.194;9.900;2023-03-21T14:17:30;100264.19;;;13.25;100.00
14232;BME280;7200;52.194;9.900;2023-03-21T14:20:05;100310.84;;;13.64;100.00
14232;BME280;7200;52.194;9.900;2023-03-21T14:22:37;100281.94;;;13.23;100.00
14232;BME280;7200;52.194;9.900;2023-03-21T14:25:07;100295.63;;;13.33;100.00